Time;durP1;ratioP1;P1;durP2;ratioP2;P2;SDS_P1;SDS_P2;PMS_P1;PMS_P2;Temp;Humidity;BMP_temperature;BMP_pressure;BME280_temperature;BME280_humidity;BME280_pressure;Samples;Min_cycle;Max_cycle;Signal;HPM_P1;HPM_P2
2021/05/20 00:05:05;;;;;;;;;;;;;;;21.16;42.21;99574.09;5321896;26;784448;-92
2021/05/20 00:07:54;;;;;;;;;;;;;;;20.88;43.10;99582.50;5346743;26;33592;-91
2021/05/20 00:10:37;;;;;;;;;;;;;;;21.23;42.51;99579.75;5355723;26;32878;-93
2021/05/20 00:13:25;;;;;;;;;;;;;;;20.98;42.92;99576.38;5320455;26;33273;-92
2021/05/20 00:15:53;;;;;;;;;;;;;;;21.18;42.98;99581.94;5314922;26;33201;-91
2021/05/20 00:18:25;;;;;;;;;;;;;;;20.84;43.48;99581.87;5316132;26;32986;-91
2021/05/20 00:20:54;;;;;;;;;;;;;;;20.76;43.86;99579.81;5315520;26;33845;-93
2021/05/20 00:23:24;;;;;;;;;;;;;;;20.89;43.60;99579.72;5333062;26;34016;-92
2021/05/20 00:26:13;;;;;;;;;;;;;;;20.91;43.93;99585.72;5321640;26;32702;-93
2021/05/20 00:29:05;;;;;;;;;;;;;;;21.07;43.25;99573.97;5323639;26;32416;-93
2021/05/20 00:31:41;;;;;;;;;;;;;;;20.79;43.44;99571.63;5317802;26;33000;-92
2021/05/20 00:34:10;;;;;;;;;;;;;;;20.55;44.26;99574.31;5316321;26;33369;-93
2021/05/20 00:36:53;;;;;;;;;;;;;;;20.84;43.49;99577.41;5320125;26;33059;-93
2021/05/20 00:39:24;;;;;;;;;;;;;;;20.64;44.15;99570.97;5334342;26;31740;-93
2021/05/20 00:41:55;;;;;;;;;;;;;;;20.76;44.00;99576.34;5337072;26;34033;-93
2021/05/20 00:44:25;;;;;;;;;;;;;;;20.49;45.05;99574.78;5327579;26;33899;-91
2021/05/20 00:46:56;;;;;;;;;;;;;;;20.80;44.46;99569.84;5327803;26;33063;-91
2021/05/20 00:49:25;;;;;;;;;;;;;;;20.73;44.46;99579.19;5348777;26;33250;-89
2021/05/20 00:51:53;;;;;;;;;;;;;;;20.48;45.16;99573.09;5369984;26;35483;-90
2021/05/20 00:54:44;;;;;;;;;;;;;;;20.43;44.85;99573.41;5339764;26;33056;-89
2021/05/20 00:57:12;;;;;;;;;;;;;;;20.76;44.02;99576.34;5333181;26;33939;-89
2021/05/20 01:00:08;;;;;;;;;;;;;;;20.58;44.54;99582.03;5353797;26;33496;-89
2021/05/20 01:02:40;;;;;;;;;;;;;;;20.80;44.43;99583.91;5351479;26;33987;-90
2021/05/20 01:05:29;;;;;;;;;;;;;;;20.26;45.75;99574.69;5348406;26;35650;-92
2021/05/20 01:08:06;;;;;;;;;;;;;;;20.68;44.49;99576.88;5329559;26;33759;-93
2021/05/20 01:10:44;;;;;;;;;;;;;;;20.76;44.32;99581.63;5329656;26;32042;-93
2021/05/20 01:13:31;;;;;;;;;;;;;;;21.14;43.54;99570.72;5330968;26;32695;-93
2021/05/20 01:16:10;;;;;;;;;;;;;;;20.71;44.57;99587.25;5330244;26;33022;-93
2021/05/20 01:18:39;;;;;;;;;;;;;;;20.26;45.05;99584.41;5328147;26;32613;-93
2021/05/20 01:21:07;;;;;;;;;;;;;;;20.52;44.45;99580.66;5331670;26;32763;-93
2021/05/20 01:23:45;;;;;;;;;;;;;;;20.68;44.03;99592.75;5333319;26;32824;-93
2021/05/20 01:26:13;;;;;;;;;;;;;;;20.83;43.58;99593.41;5332533;26;33154;-93
2021/05/20 01:28:46;;;;;;;;;;;;;;;20.90;43.53;99585.84;5333607;26;33545;-92
2021/05/20 01:31:14;;;;;;;;;;;;;;;20.71;44.25;99591.72;5333002;26;32743;-93
2021/05/20 01:33:58;;;;;;;;;;;;;;;20.56;44.66;99586.59;5332500;26;33076;-92
2021/05/20 01:36:27;;;;;;;;;;;;;;;20.82;43.78;99581.13;5330459;26;34663;-92
2021/05/20 01:39:00;;;;;;;;;;;;;;;20.47;44.88;99574.03;5330314;26;32815;-92
2021/05/20 01:41:49;;;;;;;;;;;;;;;20.35;45.08;99573.16;5331987;26;31992;-94
2021/05/20 01:44:24;;;;;;;;;;;;;;;20.80;44.13;99577.78;5329668;26;33988;-92
2021/05/20 01:47:14;;;;;;;;;;;;;;;20.60;44.56;99577.44;5332120;26;32746;-92
2021/05/20 01:49:52;;;;;;;;;;;;;;;20.61;44.54;99567.72;5329215;26;33521;-92
2021/05/20 01:52:24;;;;;;;;;;;;;;;20.46;45.18;99570.56;5311711;26;31802;-92
2021/05/20 01:54:53;;;;;;;;;;;;;;;20.52;44.79;99575.38;5310299;26;32708;-93
2021/05/20 01:57:42;;;;;;;;;;;;;;;20.43;45.10;99581.34;5317016;26;32958;-91
2021/05/20 02:00:13;;;;;;;;;;;;;;;20.52;45.02;99579.84;5329882;26;33386;-93
2021/05/20 02:03:02;;;;;;;;;;;;;;;20.52;45.06;99585.12;5331727;26;31931;-92
2021/05/20 02:05:50;;;;;;;;;;;;;;;20.64;44.70;99584.19;5315612;26;33263;-93
2021/05/20 02:09:01;;;;;;;;;;;;;;;20.96;43.93;99586.22;5301959;26;33190;-92
2021/05/20 02:11:53;;;;;;;;;;;;;;;20.84;43.96;99585.34;5312082;26;33687;-91
2021/05/20 02:14:41;;;;;;;;;;;;;;;20.74;44.35;99584.41;5312883;26;31837;-93
2021/05/20 02:17:20;;;;;;;;;;;;;;;20.27;45.15;99599.34;5308354;26;33848;-93
2021/05/20 02:19:48;;;;;;;;;;;;;;;20.65;44.31;99587.72;5324645;26;33824;-92
2021/05/20 02:22:38;;;;;;;;;;;;;;;20.63;43.97;99590.44;5309315;26;33858;-91
2021/05/20 02:25:06;;;;;;;;;;;;;;;20.46;44.18;99596.16;5305881;26;32726;-93
2021/05/20 02:28:07;;;;;;;;;;;;;;;20.02;45.14;99599.34;5288364;27;33615;-94
2021/05/20 02:30:55;;;;;;;;;;;;;;;20.19;44.38;99606.03;5286539;27;32713;-93
2021/05/20 02:33:57;;;;;;;;;;;;;;;20.34;44.49;99608.50;5295707;27;32868;-92
2021/05/20 02:36:26;;;;;;;;;;;;;;;20.62;43.54;99607.31;5280358;27;32003;-93
2021/05/20 02:39:15;;;;;;;;;;;;;;;20.56;43.46;99618.34;5283503;27;32749;-93
2021/05/20 02:42:03;;;;;;;;;;;;;;;20.32;44.00;99621.00;5279931;27;33262;-94
2021/05/20 02:44:33;;;;;;;;;;;;;;;20.73;43.04;99619.75;5280853;27;33560;-92
2021/05/20 02:47:05;;;;;;;;;;;;;;;20.14;44.38;99623.19;5262453;27;31962;-93
2021/05/20 02:49:54;;;;;;;;;;;;;;;20.03;44.92;99621.31;5252039;27;34085;-93
2021/05/20 02:52:26;;;;;;;;;;;;;;;20.34;44.04;99633.16;5280555;27;33127;-92
2021/05/20 02:55:16;;;;;;;;;;;;;;;19.82;45.02;99629.00;5284310;27;32633;-94
2021/05/20 02:58:20;;;;;;;;;;;;;;;19.92;45.08;99637.13;5286805;27;34184;-94
2021/05/20 03:01:12;;;;;;;;;;;;;;;20.01;44.67;99641.75;5280358;27;32739;-94
2021/05/20 03:03:53;;;;;;;;;;;;;;;20.15;44.58;99635.47;5264185;27;33099;-94
2021/05/20 03:06:24;;;;;;;;;;;;;;;20.30;44.20;99642.28;5263090;27;32897;-92
2021/05/20 03:09:12;;;;;;;;;;;;;;;20.49;43.80;99639.12;5266098;27;32927;-93
2021/05/20 03:12:05;;;;;;;;;;;;;;;20.38;43.87;99646.16;5266675;27;32535;-92
2021/05/20 03:14:36;;;;;;;;;;;;;;;20.13;44.57;99646.16;5263891;27;33063;-93
2021/05/20 03:17:11;;;;;;;;;;;;;;;20.12;44.75;99643.63;5264192;27;32662;-92
2021/05/20 03:19:59;;;;;;;;;;;;;;;20.30;44.23;99646.72;5265825;27;31792;-93
2021/05/20 03:22:31;;;;;;;;;;;;;;;20.30;44.32;99662.59;5272954;27;32916;-89
2021/05/20 03:25:08;;;;;;;;;;;;;;;19.95;45.15;99660.69;5296058;27;35545;-90
2021/05/20 03:28:05;;;;;;;;;;;;;;;19.84;45.42;99657.00;5281745;27;32489;-90
2021/05/20 03:30:37;;;;;;;;;;;;;;;20.02;44.82;99661.94;5279763;27;33157;-90
2021/05/20 03:33:28;;;;;;;;;;;;;;;19.81;45.43;99667.81;5288800;27;33003;-93
2021/05/20 03:36:17;;;;;;;;;;;;;;;20.19;44.55;99656.28;5295678;26;33214;-90
2021/05/20 03:39:19;;;;;;;;;;;;;;;20.60;43.78;99667.44;5287488;27;33688;-90
2021/05/20 03:42:07;;;;;;;;;;;;;;;20.71;43.52;99671.97;5275040;27;33363;-90
2021/05/20 03:45:15;;;;;;;;;;;;;;;20.44;43.96;99669.53;5291895;27;32561;-90
2021/05/20 03:47:43;;;;;;;;;;;;;;;18.74;48.14;99689.13;5292048;27;34277;-91
2021/05/20 03:50:14;;;;;;;;;;;;;;;20.28;44.71;99678.59;5270778;27;34080;-93
2021/05/20 03:52:42;;;;;;;;;;;;;;;20.29;44.40;99677.62;5262332;27;32080;-91
2021/05/20 03:55:10;;;;;;;;;;;;;;;20.58;43.81;99679.97;5264860;27;33270;-92
2021/05/20 03:58:03;;;;;;;;;;;;;;;20.48;44.06;99686.88;5295371;27;36092;-93
2021/05/20 04:00:38;;;;;;;;;;;;;;;20.39;44.29;99687.53;5307122;26;33211;-94
2021/05/20 04:03:28;;;;;;;;;;;;;;;20.50;44.06;99698.19;5274014;27;32209;-91
2021/05/20 04:05:58;;;;;;;;;;;;;;;20.62;43.85;99693.78;5304600;26;32649;-92
2021/05/20 04:09:06;;;;;;;;;;;;;;;20.41;44.31;99696.19;5280946;27;33279;-94
2021/05/20 04:11:49;;;;;;;;;;;;;;;20.05;45.54;99704.06;5265112;27;33855;-94
2021/05/20 04:14:38;;;;;;;;;;;;;;;20.45;44.44;99701.16;5281457;27;32167;-93
2021/05/20 04:17:08;;;;;;;;;;;;;;;20.69;44.00;99700.38;5264882;27;33304;-92
2021/05/20 04:19:37;;;;;;;;;;;;;;;20.67;44.03;99711.03;5284526;27;33217;-93
2021/05/20 04:22:25;;;;;;;;;;;;;;;20.61;44.11;99700.91;5287364;27;35179;-92
2021/05/20 04:24:57;;;;;;;;;;;;;;;20.39;44.53;99719.28;5282776;27;32293;-92
2021/05/20 04:27:26;;;;;;;;;;;;;;;20.47;44.43;99709.00;5265705;27;32549;-93
2021/05/20 04:30:01;;;;;;;;;;;;;;;20.54;44.14;99718.16;5282872;27;32701;-92
2021/05/20 04:32:29;;;;;;;;;;;;;;;20.50;43.99;99714.06;5283645;27;32781;-93
2021/05/20 04:35:05;;;;;;;;;;;;;;;20.15;44.83;99731.50;5283659;27;32346;-91
2021/05/20 04:37:35;;;;;;;;;;;;;;;20.28;44.63;99728.00;5283461;27;32836;-92
2021/05/20 04:40:25;;;;;;;;;;;;;;;20.54;44.30;99741.97;5282475;27;34195;-93
2021/05/20 04:43:13;;;;;;;;;;;;;;;20.36;44.85;99734.44;5284767;27;32720;-93
2021/05/20 04:45:46;;;;;;;;;;;;;;;20.14;45.42;99739.56;5282704;27;31975;-92
2021/05/20 04:48:34;;;;;;;;;;;;;;;20.08;44.92;99740.00;5262623;27;33150;-93
2021/05/20 04:51:08;;;;;;;;;;;;;;;20.25;45.06;99750.25;5261037;27;33220;-91
2021/05/20 04:53:36;;;;;;;;;;;;;;;20.83;43.71;99752.28;5258844;27;32583;-94
2021/05/20 04:56:09;;;;;;;;;;;;;;;20.03;45.60;99753.53;5275695;27;32052;-94
2021/05/20 04:58:37;;;;;;;;;;;;;;;20.69;44.12;99762.09;5260673;27;32861;-93
2021/05/20 05:01:09;;;;;;;;;;;;;;;20.51;44.92;99760.75;5279557;27;33381;-93
2021/05/20 05:03:37;;;;;;;;;;;;;;;20.68;44.19;99765.66;5261589;27;33325;-94
2021/05/20 05:06:05;;;;;;;;;;;;;;;20.46;44.63;99760.22;5261964;27;31647;-94
2021/05/20 05:08:34;;;;;;;;;;;;;;;20.81;44.16;99764.81;5277436;27;33772;-95
2021/05/20 05:11:03;;;;;;;;;;;;;;;20.67;44.40;99776.34;5258463;27;33457;-93
2021/05/20 05:13:31;;;;;;;;;;;;;;;20.41;45.52;99776.44;5258957;27;33104;-93
2021/05/20 05:16:00;;;;;;;;;;;;;;;20.72;44.68;99776.06;5259236;27;32061;-93
2021/05/20 05:18:29;;;;;;;;;;;;;;;20.23;45.94;99773.28;5260439;27;33363;-95
2021/05/20 05:20:56;;;;;;;;;;;;;;;20.23;45.66;99769.81;5259858;27;34314;-93
2021/05/20 05:23:27;;;;;;;;;;;;;;;20.49;44.60;99774.09;5277460;27;34570;-93
2021/05/20 05:25:55;;;;;;;;;;;;;;;20.47;44.86;99769.84;5259911;27;32382;-93
2021/05/20 05:28:22;;;;;;;;;;;;;;;20.33;45.36;99765.56;5260164;27;33058;-90
2021/05/20 05:30:50;;;;;;;;;;;;;;;20.48;45.29;99767.09;5278274;27;33064;-90
2021/05/20 05:33:21;;;;;;;;;;;;;;;20.20;46.06;99770.88;5258765;27;34340;-91
2021/05/20 05:35:49;;;;;;;;;;;;;;;20.18;46.35;99772.78;5284828;27;33248;-90
2021/05/20 05:38:17;;;;;;;;;;;;;;;19.89;46.82;99778.31;5292283;27;34661;-89
2021/05/20 05:40:45;;;;;;;;;;;;;;;19.80;46.57;99782.41;5291059;27;33859;-90
2021/05/20 05:43:15;;;;;;;;;;;;;;;20.12;45.48;99786.44;5292833;27;33899;-90
2021/05/20 05:45:44;;;;;;;;;;;;;;;20.13;45.50;99794.28;5274904;27;33401;-91
2021/05/20 05:48:12;;;;;;;;;;;;;;;19.94;46.74;99784.09;5267248;27;33965;-91
2021/05/20 05:50:41;;;;;;;;;;;;;;;20.06;46.04;99781.56;5278268;27;34625;-90
2021/05/20 05:53:27;;;;;;;;;;;;;;;20.51;45.03;99789.84;5275000;27;32902;-90
2021/05/20 05:55:55;;;;;;;;;;;;;;;19.61;47.71;99780.19;5256545;27;33334;-91
2021/05/20 05:58:23;;;;;;;;;;;;;;;19.85;47.13;99792.72;5256436;27;32959;-90
2021/05/20 06:00:51;;;;;;;;;;;;;;;19.66;47.50;99790.44;5256865;27;34005;-90
2021/05/20 06:03:19;;;;;;;;;;;;;;;19.76;46.83;99788.03;5274784;27;33635;-90
2021/05/20 06:05:48;;;;;;;;;;;;;;;19.34;48.99;99796.94;5274978;27;33176;-91
2021/05/20 06:08:15;;;;;;;;;;;;;;;19.38;48.49;99796.75;5256912;27;32732;-92
2021/05/20 06:10:44;;;;;;;;;;;;;;;19.49;48.31;99794.19;5256851;27;33919;-92
2021/05/20 06:13:14;;;;;;;;;;;;;;;19.66;47.83;99796.56;5258263;27;32865;-92
2021/05/20 06:15:42;;;;;;;;;;;;;;;19.75;47.47;99791.59;5257497;27;32958;-92
2021/05/20 06:18:10;;;;;;;;;;;;;;;19.82;47.16;99804.34;5257186;27;32988;-93
2021/05/20 06:20:39;;;;;;;;;;;;;;;19.64;47.43;99805.56;5257461;27;32589;-90
2021/05/20 06:23:08;;;;;;;;;;;;;;;19.94;46.48;99807.06;5260109;27;33228;-93
2021/05/20 06:25:40;;;;;;;;;;;;;;;19.91;46.65;99802.00;5257463;27;32185;-92
2021/05/20 06:28:08;;;;;;;;;;;;;;;19.45;47.82;99817.37;5257364;27;32934;-92
2021/05/20 06:30:37;;;;;;;;;;;;;;;19.82;46.53;99814.03;5257272;27;33224;-93
2021/05/20 06:33:21;;;;;;;;;;;;;;;19.47;47.79;99812.81;5263994;27;33428;-93
2021/05/20 06:36:16;;;;;;;;;;;;;;;19.83;46.36;99813.94;5247706;27;32304;-91
2021/05/20 06:38:43;;;;;;;;;;;;;;;20.33;44.65;99806.09;5277912;27;33321;-89
2021/05/20 06:41:12;;;;;;;;;;;;;;;19.87;46.37;99814.59;5277858;27;34042;-89
2021/05/20 06:43:39;;;;;;;;;;;;;;;19.90;46.36;99808.25;5298929;27;33035;-91
2021/05/20 06:46:07;;;;;;;;;;;;;;;19.93;46.74;99810.66;5319319;27;32239;-88
2021/05/20 06:48:36;;;;;;;;;;;;;;;19.90;46.72;99810.87;5270877;27;33033;-90
2021/05/20 06:51:04;;;;;;;;;;;;;;;20.22;45.67;99815.72;5299702;27;33307;-89
2021/05/20 06:53:32;;;;;;;;;;;;;;;20.41;45.05;99807.34;5300204;27;32787;-91
2021/05/20 06:56:03;;;;;;;;;;;;;;;20.40;44.91;99809.16;5299624;27;32103;-92
2021/05/20 07:01:18;;;;;;;;;;;;;;;20.55;44.41;99815.12;5312530;27;34101;-93
2021/05/20 07:03:46;;;;;;;;;;;;;;;20.47;44.14;99825.44;5296717;27;33582;-92
2021/05/20 07:06:14;;;;;;;;;;;;;;;20.71;42.57;99820.22;5296891;27;32191;-91
2021/05/20 07:08:44;;;;;;;;;;;;;;;20.37;43.82;99830.53;5297167;27;33104;-91
2021/05/20 07:11:12;;;;;;;;;;;;;;;20.37;44.17;99835.84;5279082;27;32781;-92
2021/05/20 07:13:40;;;;;;;;;;;;;;;20.36;44.17;99842.91;5300302;27;32840;-92
2021/05/20 07:16:09;;;;;;;;;;;;;;;20.78;43.94;99839.13;5300823;27;32020;-91
2021/05/20 07:18:36;;;;;;;;;;;;;;;20.27;45.11;99840.91;5320650;27;32974;-91
2021/05/20 07:21:05;;;;;;;;;;;;;;;19.75;46.52;99844.47;5298004;27;32658;-92
2021/05/20 07:23:35;;;;;;;;;;;;;;;19.48;45.49;99838.28;5298736;27;32895;-91
2021/05/20 07:26:03;;;;;;;;;;;;;;;19.71;45.99;99851.75;5303265;27;33084;-92
2021/05/20 07:28:31;;;;;;;;;;;;;;;19.52;46.83;99860.06;5301969;27;32808;-91
2021/05/20 07:31:00;;;;;;;;;;;;;;;20.00;45.47;99860.38;5300810;27;33215;-92
2021/05/20 07:33:30;;;;;;;;;;;;;;;19.70;46.83;99865.91;5296994;27;32774;-92
2021/05/20 07:35:58;;;;;;;;;;;;;;;19.55;46.97;99862.50;5297750;27;33111;-92
2021/05/20 07:38:27;;;;;;;;;;;;;;;19.31;47.31;99864.97;5297715;27;33040;-91
2021/05/20 07:40:55;;;;;;;;;;;;;;;19.40;47.04;99861.72;5300184;27;33733;-92
2021/05/20 07:43:23;;;;;;;;;;;;;;;19.22;47.76;99874.34;5301464;27;33259;-92
2021/05/20 07:45:53;;;;;;;;;;;;;;;19.93;46.12;99874.13;5298924;27;33481;-91
2021/05/20 07:48:22;;;;;;;;;;;;;;;18.46;49.43;99873.78;5315436;27;34149;-91
2021/05/20 07:50:49;;;;;;;;;;;;;;;18.82;49.44;99882.97;5297616;27;33176;-91
2021/05/20 07:53:18;;;;;;;;;;;;;;;19.01;49.02;99876.56;5297256;27;32853;-92
2021/05/20 07:55:46;;;;;;;;;;;;;;;19.06;49.50;99884.22;5279965;27;32098;-93
2021/05/20 07:58:15;;;;;;;;;;;;;;;18.92;49.50;99879.78;5299842;27;32880;-92
2021/05/20 08:00:44;;;;;;;;;;;;;;;19.05;49.38;99891.25;5300003;27;32842;-92
2021/05/20 08:06:25;;;;;;;;;;;;;;;19.62;48.05;99892.00;5299927;27;32332;-92
2021/05/20 08:08:59;;;;;;;;;;;;;;;19.57;48.45;99889.69;5318033;27;33062;-92
2021/05/20 08:11:27;;;;;;;;;;;;;;;19.69;47.67;99890.66;5299194;27;33309;-91
2021/05/20 08:13:56;;;;;;;;;;;;;;;19.59;48.20;99897.50;5299599;27;33400;-91
2021/05/20 08:16:24;;;;;;;;;;;;;;;19.49;49.15;99906.03;5300655;27;32105;-92
2021/05/20 08:18:51;;;;;;;;;;;;;;;19.95;48.40;99907.44;5301294;27;34454;-91
2021/05/20 08:21:20;;;;;;;;;;;;;;;19.61;48.89;99899.09;5319093;27;34734;-91
2021/05/20 08:23:48;;;;;;;;;;;;;;;19.36;50.01;99899.88;5300821;27;33688;-92
2021/05/20 08:26:18;;;;;;;;;;;;;;;19.42;50.31;99911.81;5300884;27;32353;-94
2021/05/20 08:28:47;;;;;;;;;;;;;;;19.66;50.34;99912.88;5319370;27;34147;-93
2021/05/20 08:31:18;;;;;;;;;;;;;;;19.40;51.41;99908.41;5300549;27;33364;-93
2021/05/20 08:33:45;;;;;;;;;;;;;;;19.90;50.09;99917.47;5300011;26;33568;-93
2021/05/20 08:36:15;;;;;;;;;;;;;;;19.72;50.44;99913.38;5300151;27;32365;-93
2021/05/20 08:38:42;;;;;;;;;;;;;;;20.00;49.12;99925.66;5297565;27;32870;-93
2021/05/20 08:41:11;;;;;;;;;;;;;;;19.58;50.78;99930.16;5297912;27;34886;-93
2021/05/20 08:43:39;;;;;;;;;;;;;;;20.08;50.21;99936.56;5315783;27;33396;-93
2021/05/20 08:46:06;;;;;;;;;;;;;;;20.25;48.87;99937.19;5297792;27;32259;-94
2021/05/20 08:48:34;;;;;;;;;;;;;;;20.53;48.73;99941.44;5315642;27;32923;-93
2021/05/20 08:51:03;;;;;;;;;;;;;;;19.98;49.61;99946.06;5315448;27;33633;-92
2021/05/20 08:53:30;;;;;;;;;;;;;;;20.07;49.97;99949.88;5297523;27;33907;-93
2021/05/20 08:55:58;;;;;;;;;;;;;;;20.19;49.54;99951.69;5297118;27;32126;-93
2021/05/20 08:58:27;;;;;;;;;;;;;;;21.08;47.60;99952.63;5314694;27;34284;-93
2021/05/20 09:00:56;;;;;;;;;;;;;;;21.02;48.44;99951.25;5315208;27;34160;-93
2021/05/20 09:03:24;;;;;;;;;;;;;;;20.48;48.66;99932.97;5298179;27;34280;-93
2021/05/20 09:05:56;;;;;;;;;;;;;;;20.58;47.98;99941.13;5297610;27;31955;-93
2021/05/20 09:08:30;;;;;;;;;;;;;;;20.48;48.70;99935.62;5297477;27;32895;-93
2021/05/20 09:10:58;;;;;;;;;;;;;;;20.29;49.65;99936.91;5279453;27;32887;-93
2021/05/20 09:13:26;;;;;;;;;;;;;;;20.78;48.40;99930.03;5315280;27;33525;-93
2021/05/20 09:16:00;;;;;;;;;;;;;;;19.92;50.15;99934.09;5297348;27;32167;-94
2021/05/20 09:18:28;;;;;;;;;;;;;;;19.45;51.80;99940.69;5279909;27;33117;-93
2021/05/20 09:20:58;;;;;;;;;;;;;;;19.58;52.02;99933.63;5315477;27;34039;-93
2021/05/20 09:23:32;;;;;;;;;;;;;;;20.15;50.76;99927.25;5281998;27;32858;-93
2021/05/20 09:26:03;;;;;;;;;;;;;;;20.14;50.74;99930.88;5279353;27;32094;-93
2021/05/20 09:28:38;;;;;;;;;;;;;;;20.26;50.46;99934.47;5279685;27;34047;-93
2021/05/20 09:31:07;;;;;;;;;;;;;;;20.75;49.27;99930.22;5280251;27;33174;-93
2021/05/20 09:33:37;;;;;;;;;;;;;;;20.91;48.67;99935.28;5297380;27;33674;-94
2021/05/20 09:36:04;;;;;;;;;;;;;;;21.01;48.57;99932.84;5315199;27;33328;-94
2021/05/20 09:38:35;;;;;;;;;;;;;;;20.49;49.79;99935.53;5299171;27;32857;-94
2021/05/20 09:41:06;;;;;;;;;;;;;;;21.04;48.89;99934.41;5303320;27;33063;-93
2021/05/20 09:43:35;;;;;;;;;;;;;;;21.33;47.65;99927.00;5303700;27;33016;-94
2021/05/20 09:46:11;;;;;;;;;;;;;;;20.93;49.76;99924.59;5304691;27;31728;-93
2021/05/20 09:48:43;;;;;;;;;;;;;;;20.58;48.93;99922.59;5313021;27;34069;-92
2021/05/20 09:51:24;;;;;;;;;;;;;;;19.86;50.57;99923.91;5295429;27;34226;-92
2021/05/20 09:53:53;;;;;;;;;;;;;;;21.55;47.56;99923.63;5315100;26;33775;-93
2021/05/20 09:56:31;;;;;;;;;;;;;;;21.71;47.11;99933.13;5297081;27;33203;-92
2021/05/20 09:58:59;;;;;;;;;;;;;;;21.69;46.76;99928.75;5314427;26;34258;-90
2021/05/20 10:01:27;;;;;;;;;;;;;;;21.69;46.51;99928.75;5333270;26;34355;-93
2021/05/20 10:03:57;;;;;;;;;;;;;;;21.70;46.10;99929.62;5315399;27;34046;-92
2021/05/20 10:06:35;;;;;;;;;;;;;;;21.28;46.19;99937.94;5330355;27;33739;-93
2021/05/20 10:09:23;;;;;;;;;;;;;;;21.38;46.31;99931.97;5316011;27;34533;-92
2021/05/20 10:12:09;;;;;;;;;;;;;;;20.91;46.97;99931.78;5281547;27;33534;-94
2021/05/20 10:14:39;;;;;;;;;;;;;;;21.78;45.21;99931.72;5302670;27;33035;-93
2021/05/20 10:17:07;;;;;;;;;;;;;;;21.71;45.09;99935.78;5304245;27;32491;-94
2021/05/20 10:19:37;;;;;;;;;;;;;;;21.61;44.91;99928.50;5315997;27;33835;-94
2021/05/20 10:22:06;;;;;;;;;;;;;;;21.69;44.49;99934.06;5282504;27;33041;-94
2021/05/20 10:24:34;;;;;;;;;;;;;;;22.24;43.21;99922.06;5282048;27;33268;-91
2021/05/20 10:27:02;;;;;;;;;;;;;;;;;;5280246;27;32046;-94
2021/05/20 10:29:30;;;;;;;;;;;;;;;22.41;43.55;99926.09;5297852;27;33665;-94
2021/05/20 10:31:58;;;;;;;;;;;;;;;21.75;44.11;99916.00;5279151;27;33413;-94
2021/05/20 10:34:27;;;;;;;;;;;;;;;21.41;44.51;99914.03;5295568;27;33406;-93
2021/05/20 10:37:03;;;;;;;;;;;;;;;21.74;44.70;99909.87;5279091;27;32133;-93
2021/05/20 10:39:31;;;;;;;;;;;;;;;22.01;42.55;99908.75;5315532;27;33232;-93
2021/05/20 10:42:00;;;;;;;;;;;;;;;21.48;43.26;99919.72;5278856;27;34482;-93
2021/05/20 10:44:29;;;;;;;;;;;;;;;22.19;40.90;99917.94;5297785;27;34028;-93
2021/05/20 10:46:56;;;;;;;;;;;;;;;22.32;41.41;99925.81;5279554;27;32865;-92
2021/05/20 10:49:44;;;;;;;;;;;;;;;21.93;40.93;99922.59;5296999;27;33011;-92
2021/05/20 10:52:31;;;;;;;;;;;;;;;21.84;41.47;99934.75;5296830;27;33142;-92
2021/05/20 10:55:06;;;;;;;;;;;;;;;22.33;40.66;99924.84;5278799;27;34015;-93
2021/05/20 10:57:52;;;;;;;;;;;;;;;22.29;40.81;99930.50;5297027;27;32085;-93
2021/05/20 11:00:41;;;;;;;;;;;;;;;22.48;39.88;99929.94;5296098;27;33014;-93
2021/05/20 11:03:10;;;;;;;;;;;;;;;22.58;40.25;99928.28;5298330;27;32973;-93
2021/05/20 11:05:42;;;;;;;;;;;;;;;22.94;39.39;99933.47;5297275;27;34252;-94
2021/05/20 11:08:11;;;;;;;;;;;;;;;23.35;38.23;99923.97;5278831;27;33816;-91
2021/05/20 11:10:38;;;;;;;;;;;;;;;23.40;36.63;99931.56;5315080;27;34751;-92
2021/05/20 11:13:06;;;;;;;;;;;;;;;23.82;36.38;99926.34;5296795;27;33097;-92
2021/05/20 11:15:33;;;;;;;;;;;;;;;24.16;35.49;99927.03;5296915;27;32756;-93
2021/05/20 11:18:34;;;;;;;;;;;;;;;24.22;34.89;99917.66;5297034;27;32434;-93
2021/05/20 11:21:02;;;;;;;;;;;;;;;23.90;36.02;99915.09;5273838;27;32970;-94
2021/05/20 11:23:32;;;;;;;;;;;;;;;24.30;34.26;99917.84;5278790;27;33635;-93
2021/05/20 11:26:00;;;;;;;;;;;;;;;23.77;34.11;99913.44;5292648;27;32998;-93
2021/05/20 11:28:29;;;;;;;;;;;;;;;24.22;33.60;99917.66;5278854;27;31985;-93
2021/05/20 11:30:57;;;;;;;;;;;;;;;23.90;33.96;99913.25;5297029;27;32882;-93
2021/05/20 11:33:26;;;;;;;;;;;;;;;24.42;33.58;99912.44;5296819;27;34007;-93
2021/05/20 11:36:10;;;;;;;;;;;;;;;24.66;33.27;99915.69;5297869;27;32956;-93
2021/05/20 11:38:52;;;;;;;;;;;;;;;23.87;33.86;99907.34;5297708;27;32001;-94
2021/05/20 11:41:20;;;;;;;;;;;;;;;24.73;32.79;99912.47;5297075;27;33841;-94
2021/05/20 11:44:06;;;;;;;;;;;;;;;24.56;31.86;99906.78;5315335;27;34763;-93
2021/05/20 11:46:34;;;;;;;;;;;;;;;24.35;32.47;99902.31;5297239;27;32828;-94
2021/05/20 11:49:02;;;;;;;;;;;;;;;24.91;32.26;99905.50;5278701;27;33104;-94
2021/05/20 11:51:44;;;;;;;;;;;;;;;24.22;32.13;99896.38;5279424;27;33011;-94
2021/05/20 11:54:15;;;;;;;;;;;;;;;23.66;33.63;99890.38;5297874;27;33127;-92
2021/05/20 11:56:49;;;;;;;;;;;;;;;24.39;32.75;99889.59;5300042;27;33286;-93
2021/05/20 11:59:22;;;;;;;;;;;;;;;24.70;31.67;99886.09;5300573;27;33152;-92
2021/05/20 12:01:50;;;;;;;;;;;;;;;24.44;31.38;99890.03;5301199;27;32947;-93
2021/05/20 12:04:18;;;;;;;;;;;;;;;24.38;32.37;99895.88;5315579;27;34492;-94
2021/05/20 12:06:50;;;;;;;;;;;;;;;24.27;31.69;99893.31;5311576;27;32952;-93
2021/05/20 12:09:19;;;;;;;;;;;;;;;23.53;32.94;99887.03;5261151;27;31825;-93
2021/05/20 12:11:48;;;;;;;;;;;;;;;23.70;32.24;99898.09;5297076;27;33199;-91
2021/05/20 12:14:25;;;;;;;;;;;;;;;24.11;31.82;99897.28;5279933;27;33890;-91
2021/05/20 12:17:02;;;;;;;;;;;;;;;23.89;32.04;99900.06;5302251;27;33086;-93
2021/05/20 12:19:31;;;;;;;;;;;;;;;24.53;30.61;99891.06;5310827;27;32186;-94
2021/05/20 12:22:03;;;;;;;;;;;;;;;24.66;30.61;99889.03;5311830;27;34299;-93
2021/05/20 12:24:35;;;;;;;;;;;;;;;24.76;29.84;99878.41;5310593;27;33229;-94
2021/05/20 12:27:04;;;;;;;;;;;;;;;25.49;29.16;99887.97;5287797;27;33520;-94
2021/05/20 12:29:32;;;;;;;;;;;;;;;25.69;28.25;99880.78;5289396;27;31976;-94
2021/05/20 12:32:29;;;;;;;;;;;;;;;25.18;28.69;99891.56;5291944;27;33701;-92
2021/05/20 12:35:17;;;;;;;;;;;;;;;25.51;28.12;99899.31;5309050;27;32986;-92
2021/05/20 12:37:51;;;;;;;;;;;;;;;25.70;27.29;99906.50;5322313;27;33961;-91
2021/05/20 12:40:19;;;;;;;;;;;;;;;25.00;27.14;99901.19;5297670;27;31903;-91
2021/05/20 12:42:50;;;;;;;;;;;;;;;24.77;28.11;99909.41;5279342;27;34186;-92
2021/05/20 12:45:26;;;;;;;;;;;;;;;24.86;27.94;99918.41;5297728;27;33111;-94
2021/05/20 12:47:54;;;;;;;;;;;;;;;24.55;27.80;99921.06;5297275;27;33984;-93
2021/05/20 12:50:42;;;;;;;;;;;;;;;25.47;27.10;99920.06;5279419;27;31914;-93
2021/05/20 12:53:11;;;;;;;;;;;;;;;25.04;27.45;99923.09;5278815;27;34064;-93
2021/05/20 12:55:40;;;;;;;;;;;;;;;25.73;26.92;99918.66;5297060;27;32996;-92
2021/05/20 12:58:08;;;;;;;;;;;;;;;25.10;28.05;99922.53;5297121;27;33827;-92
2021/05/20 13:00:57;;;;;;;;;;;;;;;25.10;27.17;99923.38;5297393;27;32197;-92
2021/05/20 13:03:27;;;;;;;;;;;;;;;24.34;28.40;99951.25;5297932;27;32412;-93
2021/05/20 13:05:57;;;;;;;;;;;;;;;25.54;27.47;99984.41;5298221;27;34546;-92
2021/05/20 13:08:27;;;;;;;;;;;;;;;25.35;27.33;99985.19;5281524;27;32791;-94
2021/05/20 13:10:56;;;;;;;;;;;;;;;25.37;27.52;99985.06;5297904;27;32177;-93
2021/05/20 13:13:27;;;;;;;;;;;;;;;25.15;27.78;99985.09;5297755;27;33012;-92
2021/05/20 13:16:15;;;;;;;;;;;;;;;24.27;29.70;99987.31;5297613;27;33607;-92
2021/05/20 13:24:15;;;;;;;;;;;;;;;23.33;32.31;99998.53;5298149;27;33378;-93
2021/05/20 13:26:48;;;;;;;;;;;;;;;23.05;33.18;99991.06;5297667;27;33923;-93
2021/05/20 13:29:16;;;;;;;;;;;;;;;23.41;32.66;99986.44;5276840;27;33300;-90
2021/05/20 13:31:46;;;;;;;;;;;;;;;23.40;33.30;99993.59;5298311;27;34100;-92
2021/05/20 13:34:15;;;;;;;;;;;;;;;23.68;33.10;99984.19;5296389;27;33053;-88
2021/05/20 13:36:44;;;;;;;;;;;;;;;23.51;33.90;99984.72;5295128;27;34553;-88
2021/05/20 13:39:12;;;;;;;;;;;;;;;22.61;35.51;99985.59;5296241;27;33086;-88